U vindt ons ook hier:

Het Weer Aktueel

European Weather Network

Weather Underground

AWEKAS

WeatherlinkIP

HAMweather, WeatherForYou, PWS Weather


METAR rapporten vliegvelden

   
EHAM - Amsterdam/Schiph, Netherlands
Afstand tot: NW 32 km
Gewijzigd: 26-05-2018 13:25
Licht bewolkt  
Licht bewolkt  
   Wind: NO 16.7 km/h
Wind: NO 16.7 km/h
Temperatuur: 25°C
Dauwpunt: 17°C
Vochtigheid: 61%
Barometer: 1020 hPa
Bewolking: Licht bewolkt
Zicht: meer dan 10 km
Bewolking: Licht bewolkt 3200 ft
EHAM 261125Z 05009KT 9999 FEW032 25/17 Q1020 NOSIG
EHRD - Rotterdam Airpor, Netherlands
Afstand tot: WZW 45 km
Gewijzigd: 26-05-2018 13:55
Gedeeltelijk bewolkt  
Gedeeltelijk bewolkt  
   Wind: Oosten 18.5 km/h
Wind: Oosten 18.5 km/h
Temperatuur: 27°C
Gevoelstemperatuur: 27°C
Dauwpunt: 15°C
Vochtigheid: 48%
Barometer: 1019 hPa
Bewolking: Gedeeltelijk bewolkt
Zicht: meer dan 10 km
Bewolking: Gedeeltelijk bewolkt
EHRD 261155Z AUTO 08010KT 040V110 9999 NSC 27/15 Q1019 NOSIG
EHDL - Deelen Rnlafb, Netherlands
Afstand tot: O 55 km
Gewijzigd: 26-05-2018 13:55
Grotendeels bewolkt  
Grotendeels bewolkt  
   Wind: varieert 14.8 km/h
Wind: varieert 14.8 km/h
Temperatuur: 28°C
Gevoelstemperatuur: 28°C
Dauwpunt: 14°C
Vochtigheid: 42%
Barometer: 1020 hPa
Bewolking: Grotendeels bewolkt
Zicht: meer dan 10 km
Bewolking: Grotendeels bewolkt 4800 ft,
Grotendeels bewolkt 5800 ft,
Grotendeels bewolkt 6500 ft
EHDL 261155Z AUTO VRB08KT 9999 BKN048 BKN058 BKN065 28/14 Q1020 BLU
EHGR - Gilze-Rijen Rnla, Netherlands
Afstand tot: Z 59 km
Gewijzigd: 26-05-2018 13:55
Grotendeels bewolkt  
Grotendeels bewolkt  
   Wind: ONO 14.8 km/h
Wind: ONO 14.8 km/h
Temperatuur: 28°C
Gevoelstemperatuur: 28°C
Dauwpunt: 16°C
Vochtigheid: 48%
Barometer: 1019 hPa
Bewolking: Grotendeels bewolkt
Zicht: meer dan 10 km
Bewolking: Gedeeltelijk bewolkt 4800 ft,
Grotendeels bewolkt 18000 ft
EHGR 261155Z AUTO 07008KT 010V120 9999 SCT048 BKN180 28/16 Q1019 BLU 09009KT 9999 FEW045
EHVK - Volkel Rnlafb, Netherlands
Afstand tot: ZO 67 km
Gewijzigd: 01-01-1970 01:00
Verouderd
  
  
   Wind: Kalm
Wind: Kalm
EHEH - Eindhoven Rnlafb, Netherlands
Afstand tot: ZZO 74 km
Gewijzigd: 26-05-2018 13:55
Bewolking  
Bewolking  
   Wind: ZO 14.8 km/h
Wind: ZO 14.8 km/h
Temperatuur: 28°C
Gevoelstemperatuur: 28°C
Dauwpunt: 16°C
Vochtigheid: 48%
Barometer: 1019 hPa
Bewolking: Bewolking
Zicht: meer dan 10 km
Bewolking: Gedeeltelijk bewolkt 4700 ft,
Bewolking 14000 ft
EHEH 261155Z AUTO 14008KT 050V170 9999 SCT047 OVC140 28/16 Q1019 BLU 10008KT 9999 FEW045 BKN170

Script ontwikkeld door  Saratoga-weather.org Aangepast voor de template door  Weerstation Leuven

Apparatuur in gebruik:

Weerstation
Davis VP2 Plus (Wireless)

Weerprogramma
Cumulus

Weercomputer
Shuttle Inc. SFM27

Webleverancier
Antagonist Webhosting

Davis VP2 Plus (Wireless)

Cumulus

Shuttle Inc. SFM27

Antagonist Webhosting